createdAt,value
2018-01-20T00:01:01.685Z,7.50
2018-01-20T00:03:29.696Z,7.50
2018-01-20T00:05:57.744Z,7.50
2018-01-20T00:08:26.639Z,7.40
2018-01-20T00:11:18.222Z,7.40
2018-01-20T00:13:46.248Z,7.40
2018-01-20T00:16:14.287Z,7.40
2018-01-20T00:18:43.063Z,7.40
2018-01-20T00:21:11.196Z,7.30
2018-01-20T00:23:39.225Z,7.40
2018-01-20T00:26:13.657Z,7.30
2018-01-20T00:28:41.726Z,7.30
2018-01-20T00:31:09.752Z,7.30
2018-01-20T00:33:37.779Z,7.30
2018-01-20T00:36:05.792Z,7.30
2018-01-20T00:38:33.828Z,7.20
2018-01-20T00:41:01.828Z,7.20
2018-01-20T00:43:29.854Z,7.20
2018-01-20T00:45:57.877Z,7.20
2018-01-20T00:48:25.926Z,7.20
2018-01-20T00:50:53.978Z,7.20
2018-01-20T00:53:21.988Z,7.10
2018-01-20T00:55:50.011Z,7.10
2018-01-20T00:58:18.026Z,7.10
2018-01-20T01:00:46.062Z,7.10
2018-01-20T01:03:14.140Z,7.10
2018-01-20T01:05:42.160Z,7.10
2018-01-20T01:08:10.936Z,7.00
2018-01-20T01:10:38.961Z,7.00
2018-01-20T01:13:07.018Z,7.00
2018-01-20T01:15:35.032Z,7.00
2018-01-20T01:18:03.081Z,7.00
2018-01-20T01:20:31.110Z,6.90
2018-01-20T01:22:59.912Z,6.90
2018-01-20T01:25:27.922Z,6.90
2018-01-20T01:27:55.947Z,6.90
2018-01-20T01:30:23.968Z,6.90
2018-01-20T01:32:51.979Z,6.80
2018-01-20T01:35:20.769Z,6.80
2018-01-20T01:37:48.789Z,6.80
2018-01-20T01:40:16.816Z,6.80
2018-01-20T01:42:44.824Z,6.80
2018-01-20T01:45:12.847Z,6.70
2018-01-20T01:47:41.631Z,6.70
2018-01-20T01:50:10.419Z,6.70
2018-01-20T01:52:39.200Z,6.70
2018-01-20T01:55:08.009Z,6.70
2018-01-20T01:57:36.054Z,6.60
2018-01-20T02:00:04.928Z,6.70
2018-01-20T02:02:32.961Z,6.70
2018-01-20T02:05:01.009Z,6.60
2018-01-20T02:07:29.038Z,6.60
2018-01-20T02:09:57.061Z,6.60
2018-01-20T02:12:25.089Z,6.60
2018-01-20T02:14:53.161Z,6.60
2018-01-20T02:17:21.189Z,6.60
2018-01-20T02:19:49.204Z,6.60
2018-01-20T02:22:17.993Z,6.60
2018-01-20T02:24:46.787Z,6.60
2018-01-20T02:27:15.617Z,6.60
2018-01-20T02:29:43.632Z,6.50
2018-01-20T02:32:11.681Z,6.60
2018-01-20T02:34:39.705Z,6.60
2018-01-20T02:37:07.712Z,6.60
2018-01-20T02:39:35.756Z,6.50
2018-01-20T02:42:03.776Z,6.50
2018-01-20T02:44:31.774Z,6.50
2018-01-20T02:47:00.565Z,6.50
2018-01-20T02:49:28.618Z,6.50
2018-01-20T02:51:57.436Z,6.50
2018-01-20T02:54:25.451Z,6.50
2018-01-20T02:56:53.471Z,6.50
2018-01-20T02:59:21.487Z,6.50
2018-01-20T03:01:49.517Z,6.50
2018-01-20T03:04:17.580Z,6.40
2018-01-20T03:06:45.601Z,6.40
2018-01-20T03:09:13.612Z,6.40
2018-01-20T03:11:41.637Z,6.40
2018-01-20T03:14:09.657Z,6.40
2018-01-20T03:16:37.668Z,6.40
2018-01-20T03:19:05.708Z,6.40
2018-01-20T03:21:33.781Z,6.40
2018-01-20T03:24:01.836Z,6.40
2018-01-20T03:26:29.848Z,6.40
2018-01-20T03:28:57.875Z,6.30
2018-01-20T03:31:26.656Z,6.30
2018-01-20T03:33:55.449Z,6.30
2018-01-20T03:36:24.290Z,6.30
2018-01-20T03:38:53.072Z,6.30
2018-01-20T03:41:21.887Z,6.30
2018-01-20T03:43:49.905Z,6.30
2018-01-20T03:46:17.938Z,6.30
2018-01-20T03:48:46.724Z,6.30
2018-01-20T03:51:14.752Z,6.30
2018-01-20T03:53:42.776Z,6.30
2018-01-20T03:56:11.549Z,6.30
2018-01-20T03:58:39.600Z,6.30
2018-01-20T04:01:07.632Z,6.30
2018-01-20T04:03:35.688Z,6.30
2018-01-20T04:06:03.750Z,6.20
2018-01-20T04:08:32.549Z,6.20
2018-01-20T04:11:00.586Z,6.20
2018-01-20T04:13:28.599Z,6.20
2018-01-20T04:15:56.602Z,6.20
2018-01-20T04:18:24.620Z,6.20
2018-01-20T04:20:53.413Z,6.20
2018-01-20T04:23:21.460Z,6.20
2018-01-20T04:25:50.278Z,6.20
2018-01-20T04:28:18.298Z,6.20
2018-01-20T04:30:46.365Z,6.20
2018-01-20T04:33:14.404Z,6.20
2018-01-20T04:35:42.456Z,6.20
2018-01-20T04:38:10.477Z,6.20
2018-01-20T04:40:38.524Z,6.20
2018-01-20T04:43:06.618Z,6.20
2018-01-20T04:45:34.641Z,6.20
2018-01-20T04:48:02.674Z,6.20
2018-01-20T04:50:30.694Z,6.20
2018-01-20T04:52:58.698Z,6.20
2018-01-20T04:55:26.795Z,6.20
2018-01-20T04:57:55.589Z,6.20
2018-01-20T05:00:24.440Z,6.20
2018-01-20T05:02:52.460Z,6.10
2018-01-20T05:05:20.516Z,6.20
2018-01-20T05:07:49.304Z,6.10
2018-01-20T05:10:18.122Z,6.10
2018-01-20T05:12:46.132Z,6.10
2018-01-20T05:15:14.153Z,6.10
2018-01-20T05:17:42.166Z,6.10
2018-01-20T05:20:10.185Z,6.10
2018-01-20T05:22:38.965Z,6.10
2018-01-20T05:25:07.734Z,6.10
2018-01-20T05:27:35.738Z,6.10
2018-01-20T05:30:03.820Z,6.10
2018-01-20T05:32:31.842Z,6.10
2018-01-20T05:34:59.861Z,6.10
2018-01-20T05:37:27.866Z,6.00
2018-01-20T05:39:55.890Z,6.00
2018-01-20T05:42:23.908Z,6.00
2018-01-20T05:44:51.898Z,6.00
2018-01-20T05:47:19.961Z,6.00
2018-01-20T05:49:47.990Z,6.00
2018-01-20T05:52:16.004Z,6.00
2018-01-20T05:54:44.025Z,5.90
2018-01-20T05:57:12.069Z,6.00
2018-01-20T05:59:40.869Z,5.90
2018-01-20T06:02:08.910Z,5.90
2018-01-20T06:04:36.945Z,5.90
2018-01-20T06:07:04.985Z,5.90
2018-01-20T06:09:33.042Z,5.90
2018-01-20T06:12:01.058Z,5.90
2018-01-20T06:14:29.094Z,5.80
2018-01-20T06:16:57.106Z,5.80
2018-01-20T06:19:25.130Z,5.80
2018-01-20T06:21:53.171Z,5.80
2018-01-20T06:24:21.947Z,5.80
2018-01-20T06:26:49.969Z,5.80
2018-01-20T06:29:17.981Z,5.80
2018-01-20T06:31:46.026Z,5.70
2018-01-20T06:34:14.051Z,5.70
2018-01-20T06:36:42.818Z,5.70
2018-01-20T06:39:10.808Z,5.70
2018-01-20T06:41:39.559Z,5.70
2018-01-20T06:44:07.550Z,5.70
2018-01-20T06:46:35.581Z,5.70
2018-01-20T06:49:03.595Z,5.70
2018-01-20T06:51:32.415Z,5.60
2018-01-20T06:54:00.469Z,5.60
2018-01-20T06:56:29.245Z,5.60
2018-01-20T06:58:58.137Z,5.60
2018-01-20T07:01:26.929Z,5.60
2018-01-20T07:03:55.761Z,5.60
2018-01-20T07:06:23.838Z,5.60
2018-01-20T07:08:51.836Z,5.60
2018-01-20T07:11:19.839Z,5.60
2018-01-20T07:13:47.857Z,5.60
2018-01-20T07:16:15.926Z,5.60
2018-01-20T07:18:43.987Z,5.60
2018-01-20T07:21:11.989Z,5.60
2018-01-20T07:23:39.997Z,5.60
2018-01-20T07:26:08.031Z,5.50
2018-01-20T07:28:36.050Z,5.60
2018-01-20T07:31:04.139Z,5.50
2018-01-20T07:33:32.146Z,5.60
2018-01-20T07:36:00.164Z,5.60
2018-01-20T07:38:28.229Z,5.60
2018-01-20T07:40:56.245Z,5.60
2018-01-20T07:43:24.243Z,5.50
2018-01-20T07:45:53.041Z,5.60
2018-01-20T07:48:21.070Z,5.60
2018-01-20T07:50:49.125Z,5.60
2018-01-20T07:53:17.174Z,5.60
2018-01-20T07:55:45.188Z,5.60
2018-01-20T07:58:13.245Z,5.60
2018-01-20T08:00:41.326Z,5.60
2018-01-20T08:03:09.361Z,5.60
2018-01-20T08:05:37.400Z,5.70
2018-01-20T08:08:06.187Z,5.70
2018-01-20T08:10:34.174Z,5.70
2018-01-20T08:13:03.727Z,5.70
2018-01-20T08:15:32.711Z,5.70
2018-01-20T08:18:00.750Z,5.70
2018-01-20T08:20:28.771Z,5.80
2018-01-20T08:22:56.806Z,5.80
2018-01-20T08:25:24.809Z,5.80
2018-01-20T08:27:52.802Z,5.90
2018-01-20T08:30:21.588Z,5.90
2018-01-20T08:32:50.333Z,6.00
2018-01-20T08:35:18.348Z,6.00
2018-01-20T08:37:47.161Z,6.00
2018-01-20T08:40:15.170Z,6.00
2018-01-20T08:42:43.182Z,6.10
2018-01-20T08:45:11.179Z,6.20
2018-01-20T08:47:39.217Z,6.20
2018-01-20T08:50:07.263Z,6.20
2018-01-20T08:52:35.274Z,6.30
2018-01-20T08:55:03.367Z,6.30
2018-01-20T08:57:31.398Z,6.40
2018-01-20T09:00:00.183Z,6.40
2018-01-20T09:02:28.959Z,6.50
2018-01-20T09:04:57.735Z,6.50
2018-01-20T09:07:25.739Z,6.50
2018-01-20T09:09:53.738Z,6.60
2018-01-20T09:12:21.763Z,6.60
2018-01-20T09:14:50.545Z,6.70
2018-01-20T09:17:19.350Z,6.80
2018-01-20T09:19:47.350Z,6.70
2018-01-20T09:22:15.365Z,6.80
2018-01-20T09:24:43.359Z,6.80
2018-01-20T09:27:11.396Z,6.90
2018-01-20T09:29:39.486Z,6.90
2018-01-20T09:32:08.320Z,7.00
2018-01-20T09:34:36.321Z,7.00
2018-01-20T09:37:04.360Z,7.10
2018-01-20T09:39:32.368Z,7.10
2018-01-20T09:42:00.336Z,7.20
2018-01-20T09:44:28.331Z,7.20
2018-01-20T09:46:57.110Z,7.30
2018-01-20T09:49:25.887Z,7.30
2018-01-20T09:51:53.954Z,7.30
2018-01-20T09:54:21.954Z,7.40
2018-01-20T09:56:49.978Z,7.40
2018-01-20T09:59:17.997Z,7.40
2018-01-20T10:01:46.080Z,7.50
2018-01-20T10:04:14.079Z,7.50
2018-01-20T10:06:42.079Z,7.60
2018-01-20T10:09:10.845Z,7.70
2018-01-20T10:11:38.869Z,7.70
2018-01-20T10:14:06.886Z,7.80
2018-01-20T10:16:34.934Z,7.80
2018-01-20T10:19:02.936Z,7.90
2018-01-20T10:21:30.955Z,7.90
2018-01-20T10:23:59.006Z,8.00
2018-01-20T10:26:27.002Z,8.00
2018-01-20T10:28:55.057Z,8.10
2018-01-20T10:31:23.081Z,8.10
2018-01-20T10:33:51.106Z,8.20
2018-01-20T10:36:19.126Z,8.20
2018-01-20T10:38:47.211Z,8.30
2018-01-20T10:41:15.993Z,8.40
2018-01-20T10:43:44.000Z,8.40
2018-01-20T10:46:12.028Z,8.40
2018-01-20T10:48:40.055Z,8.40
2018-01-20T10:51:08.084Z,8.50
2018-01-20T10:53:36.919Z,8.60
2018-01-20T10:56:04.934Z,8.60
2018-01-20T10:58:33.699Z,8.80
2018-01-20T11:01:01.724Z,8.80
2018-01-20T11:03:29.735Z,8.90
2018-01-20T11:05:57.796Z,8.90
2018-01-20T11:08:25.792Z,9.00
2018-01-20T11:10:53.907Z,9.10
2018-01-20T11:13:21.937Z,9.20
2018-01-20T11:15:50.239Z,9.20
2018-01-20T11:18:18.567Z,9.30
2018-01-20T11:20:47.593Z,9.50
2018-01-20T11:23:15.909Z,9.50
2018-01-20T11:25:44.164Z,9.60
2018-01-20T11:28:12.342Z,9.60
2018-01-20T11:30:40.520Z,9.70
2018-01-20T11:33:08.696Z,9.80
2018-01-20T11:35:36.739Z,9.80
2018-01-20T11:38:05.569Z,10.00
2018-01-20T11:40:33.624Z,10.00
2018-01-20T11:43:01.638Z,10.10
2018-01-20T11:45:29.670Z,10.20
2018-01-20T11:47:57.690Z,10.20
2018-01-20T11:50:25.695Z,10.30
2018-01-20T11:52:53.956Z,10.40
2018-01-20T11:55:22.223Z,10.40
2018-01-20T11:57:50.427Z,10.50
2018-01-20T12:00:18.626Z,10.50
2018-01-20T12:02:46.927Z,10.60
2018-01-20T12:05:15.979Z,10.70
2018-01-20T12:07:44.144Z,10.70
2018-01-20T12:10:12.289Z,10.70
2018-01-20T12:12:40.425Z,10.80
2018-01-20T12:15:08.486Z,10.90
2018-01-20T12:20:04.805Z,11.00
2018-01-20T12:22:33.129Z,11.10
2018-01-20T12:25:02.299Z,11.30
2018-01-20T12:27:30.659Z,11.30
2018-01-20T12:30:00.640Z,11.50
2018-01-20T12:32:28.951Z,11.50
2018-01-20T12:34:57.316Z,11.70
2018-01-20T12:37:25.669Z,11.80
2018-01-20T12:39:54.083Z,12.00
2018-01-20T12:42:22.567Z,12.20
2018-01-20T12:44:50.677Z,12.30
2018-01-20T12:47:19.124Z,12.50
2018-01-20T12:49:47.510Z,12.70
2018-01-20T12:52:15.891Z,12.80
2018-01-20T12:54:44.315Z,13.00
2018-01-20T12:57:12.726Z,13.20
2018-01-20T12:59:41.130Z,13.30
2018-01-20T13:02:09.491Z,13.50
2018-01-20T13:04:37.841Z,13.60
2018-01-20T13:07:06.156Z,13.80
2018-01-20T13:09:34.510Z,13.90
2018-01-20T13:12:02.912Z,14.00
2018-01-20T13:14:31.235Z,14.10
2018-01-20T13:16:59.541Z,14.20
2018-01-20T13:19:27.899Z,14.30
2018-01-20T13:21:56.329Z,14.40
2018-01-20T13:24:24.758Z,14.50
2018-01-20T13:26:53.065Z,14.60
2018-01-20T13:29:21.180Z,14.60
2018-01-20T13:31:49.242Z,14.70
2018-01-20T13:34:17.250Z,14.80
2018-01-20T13:36:46.094Z,14.90
2018-01-20T13:39:14.118Z,14.80
2018-01-20T13:41:42.935Z,15.00
2018-01-20T13:44:10.964Z,15.00
2018-01-20T13:46:39.058Z,15.00
2018-01-20T13:49:07.835Z,15.10
2018-01-20T13:51:36.621Z,15.10
2018-01-20T13:54:05.442Z,15.10
2018-01-20T13:56:33.477Z,15.10
2018-01-20T13:59:02.262Z,15.20
2018-01-20T14:01:30.313Z,15.10
2018-01-20T14:03:58.369Z,15.20
2018-01-20T14:06:26.555Z,15.20
2018-01-20T14:08:54.578Z,15.20
2018-01-20T14:11:22.594Z,15.10
2018-01-20T14:13:50.626Z,15.10
2018-01-20T14:16:18.603Z,15.10
2018-01-20T14:18:46.621Z,15.10
2018-01-20T14:21:14.678Z,15.00
2018-01-20T14:23:42.699Z,15.00
2018-01-20T14:26:10.747Z,15.00
2018-01-20T14:28:39.549Z,14.90
2018-01-20T14:31:07.610Z,14.90
2018-01-20T14:33:36.482Z,14.90
2018-01-20T14:36:04.491Z,14.80
2018-01-20T14:38:32.482Z,14.80
2018-01-20T14:41:00.514Z,14.80
2018-01-20T14:43:29.290Z,14.70
2018-01-20T14:45:58.093Z,14.70
2018-01-20T14:48:26.157Z,14.70
2018-01-20T14:50:54.953Z,14.70
2018-01-20T14:53:23.055Z,14.70
2018-01-20T14:55:51.087Z,14.70
2018-01-20T14:58:19.914Z,14.60
2018-01-20T15:00:47.953Z,14.60
2018-01-20T15:03:16.074Z,14.50
2018-01-20T15:05:44.100Z,14.50
2018-01-20T15:08:12.146Z,14.40
2018-01-20T15:10:40.923Z,14.30
2018-01-20T15:13:08.947Z,14.30
2018-01-20T15:15:36.969Z,14.30
2018-01-20T15:18:04.979Z,14.20
2018-01-20T15:20:32.998Z,14.10
2018-01-20T15:23:01.074Z,14.10
2018-01-20T15:25:29.117Z,14.00
2018-01-20T15:27:57.173Z,13.90
2018-01-20T15:30:25.192Z,13.80
2018-01-20T15:32:54.003Z,13.70
2018-01-20T15:35:22.786Z,13.60
2018-01-20T15:37:50.798Z,13.60
2018-01-20T15:40:18.841Z,13.60
2018-01-20T15:42:46.913Z,13.50
2018-01-20T15:45:14.943Z,13.50
2018-01-20T15:47:42.915Z,13.40
2018-01-20T15:50:11.293Z,13.30
2018-01-20T15:52:40.129Z,13.20
2018-01-20T15:55:08.170Z,13.20
2018-01-20T15:57:36.963Z,13.10
2018-01-20T16:00:06.110Z,13.00
2018-01-20T16:02:34.121Z,13.00
2018-01-20T16:05:02.926Z,12.80
2018-01-20T16:07:31.002Z,12.90
2018-01-20T16:09:59.101Z,12.80
2018-01-20T16:12:27.171Z,12.70
2018-01-20T16:14:55.218Z,12.70
2018-01-20T16:17:23.230Z,12.60
2018-01-20T16:19:51.378Z,12.50
2018-01-20T16:22:19.756Z,12.50
2018-01-20T16:24:47.781Z,12.50
2018-01-20T16:27:16.997Z,12.30
2018-01-20T16:29:45.064Z,12.30
2018-01-20T16:32:13.109Z,12.30
2018-01-20T16:34:42.174Z,12.20
2018-01-20T16:37:10.375Z,12.20
2018-01-20T16:39:38.394Z,12.10
2018-01-20T16:42:06.490Z,12.00
2018-01-20T16:44:34.553Z,12.00
2018-01-20T16:47:02.622Z,12.00
2018-01-20T16:49:30.622Z,11.90
2018-01-20T16:51:58.677Z,11.90
2018-01-20T16:54:26.693Z,11.80
2018-01-20T16:56:55.546Z,11.80
2018-01-20T16:59:23.624Z,11.70
2018-01-20T17:01:51.775Z,11.70
2018-01-20T17:04:19.808Z,11.60
2018-01-20T17:06:47.844Z,11.60
2018-01-20T17:09:15.889Z,11.50
2018-01-20T17:11:43.931Z,11.50
2018-01-20T17:14:12.000Z,11.40
2018-01-20T17:16:40.049Z,11.40
2018-01-20T17:19:08.070Z,11.30
2018-01-20T17:21:36.150Z,11.30
2018-01-20T17:24:04.190Z,11.20
2018-01-20T17:26:32.300Z,11.20
2018-01-20T17:29:00.354Z,11.20
2018-01-20T17:31:28.430Z,11.10
2018-01-20T17:33:56.454Z,11.10
2018-01-20T17:36:24.538Z,11.00
2018-01-20T17:38:52.579Z,11.00
2018-01-20T17:41:21.367Z,10.90
2018-01-20T17:43:50.221Z,10.90
2018-01-20T17:46:18.356Z,10.80
2018-01-20T17:48:46.695Z,10.80
2018-01-20T17:51:15.573Z,10.70
2018-01-20T17:53:43.697Z,10.70
2018-01-20T17:56:11.874Z,10.70
2018-01-20T17:58:39.939Z,10.60
2018-01-20T18:01:08.858Z,10.60
2018-01-20T18:03:36.960Z,10.60
2018-01-20T18:06:06.381Z,10.50
2018-01-20T18:08:35.167Z,10.40
2018-01-20T18:11:03.209Z,10.40
2018-01-20T18:13:31.232Z,10.40
2018-01-20T18:15:59.254Z,10.30
2018-01-20T18:18:27.280Z,10.30
2018-01-20T18:20:55.314Z,10.30
2018-01-20T18:23:24.129Z,10.20
2018-01-20T18:25:52.367Z,10.20
2018-01-20T18:28:21.177Z,10.10
2018-01-20T18:30:49.946Z,10.10
2018-01-20T18:33:18.935Z,10.00
2018-01-20T18:35:49.256Z,10.00
2018-01-20T18:38:18.968Z,9.90
2018-01-20T18:40:47.242Z,9.90
2018-01-20T18:43:16.237Z,9.90
2018-01-20T18:45:45.087Z,9.80
2018-01-20T18:48:13.307Z,9.80
2018-01-20T18:50:42.290Z,9.80
2018-01-20T18:53:10.606Z,9.80
2018-01-20T18:55:38.845Z,9.70
2018-01-20T18:58:07.836Z,9.60
2018-01-20T19:00:36.828Z,9.60
2018-01-20T19:03:04.899Z,9.60
2018-01-20T19:05:32.945Z,9.60
2018-01-20T19:08:00.969Z,9.50
2018-01-20T19:10:29.225Z,9.50
2018-01-20T19:12:58.309Z,9.40
2018-01-20T19:15:27.305Z,9.40
2018-01-20T19:17:57.319Z,9.40
2018-01-20T19:20:25.598Z,9.30
2018-01-20T19:22:55.102Z,9.30
2018-01-20T19:25:24.524Z,9.30
2018-01-20T19:27:54.158Z,9.20
2018-01-20T19:30:22.390Z,9.20
2018-01-20T19:32:51.378Z,9.10
2018-01-20T19:35:19.656Z,9.10
2018-01-20T19:37:48.648Z,9.10
2018-01-20T19:40:16.921Z,9.10
2018-01-20T19:42:45.198Z,9.00
2018-01-20T19:45:14.398Z,9.00
2018-01-20T19:47:42.401Z,9.00
2018-01-20T19:50:10.642Z,8.90
2018-01-20T19:52:38.834Z,8.90
2018-01-20T19:55:07.834Z,8.80
2018-01-20T19:57:36.593Z,8.80
2018-01-20T20:00:04.974Z,8.80
2018-01-20T20:02:33.248Z,8.70
2018-01-20T20:05:02.040Z,8.70
2018-01-20T20:07:30.113Z,8.70
2018-01-20T20:09:59.100Z,8.60
2018-01-20T20:12:27.129Z,8.60
2018-01-20T20:14:55.347Z,8.60
2018-01-20T20:17:23.620Z,8.50
2018-01-20T20:19:51.896Z,8.50
2018-01-20T20:22:20.175Z,8.40
2018-01-20T20:24:48.448Z,8.40
2018-01-20T20:27:16.759Z,8.40
2018-01-20T20:29:45.000Z,8.40
2018-01-20T20:32:13.998Z,8.30
2018-01-20T20:34:42.989Z,8.20
2018-01-20T20:37:11.263Z,8.20
2018-01-20T20:39:39.536Z,8.20
2018-01-20T20:42:08.534Z,8.20
2018-01-20T20:44:36.804Z,8.10
2018-01-20T20:47:05.085Z,8.10
2018-01-20T20:49:33.357Z,8.10
2018-01-20T20:52:01.631Z,8.00
2018-01-20T20:54:29.800Z,8.00
2018-01-20T20:56:58.082Z,8.00
2018-01-20T20:59:26.263Z,7.90
2018-01-20T21:01:55.252Z,7.90
2018-01-20T21:04:23.528Z,7.80
2018-01-20T21:06:52.314Z,7.80
2018-01-20T21:09:20.591Z,7.80
2018-01-20T21:11:48.864Z,7.80
2018-01-20T21:14:17.859Z,7.70
2018-01-20T21:16:46.136Z,7.70
2018-01-20T21:19:14.309Z,7.70
2018-01-20T21:21:42.584Z,7.60
2018-01-20T21:24:10.865Z,7.60
2018-01-20T21:26:39.137Z,7.60
2018-01-20T21:29:07.409Z,7.50
2018-01-20T21:31:35.685Z,7.50
2018-01-20T21:34:03.964Z,7.50
2018-01-20T21:36:32.852Z,7.50
2018-01-20T21:39:00.925Z,7.40
2018-01-20T21:41:29.201Z,7.40
2018-01-20T21:43:58.191Z,7.40
2018-01-20T21:46:26.473Z,7.30
2018-01-20T21:48:55.463Z,7.30
2018-01-20T21:51:23.738Z,7.30
2018-01-20T21:53:51.742Z,7.30
2018-01-20T21:56:19.983Z,7.20
2018-01-20T21:58:48.152Z,7.20
2018-01-20T22:01:16.433Z,7.20
2018-01-20T22:03:44.605Z,7.20
2018-01-20T22:06:12.774Z,7.20
2018-01-20T22:08:40.895Z,7.10
2018-01-20T22:11:09.123Z,7.10
2018-01-20T22:13:37.402Z,7.10
2018-01-20T22:16:05.575Z,7.10
2018-01-20T22:18:33.848Z,7.10
2018-01-20T22:21:01.990Z,7.10
2018-01-20T22:23:30.093Z,7.00
2018-01-20T22:25:58.371Z,7.00
2018-01-20T22:28:26.647Z,7.00
2018-01-20T22:30:54.822Z,7.00
2018-01-20T22:33:22.990Z,7.00
2018-01-20T22:35:51.165Z,6.90
2018-01-20T22:38:19.442Z,6.90
2018-01-20T22:40:47.716Z,6.90
2018-01-20T22:43:15.992Z,6.90
2018-01-20T22:45:44.269Z,6.90
2018-01-20T22:48:12.381Z,6.90
2018-01-20T22:50:40.617Z,6.80
2018-01-20T22:53:08.894Z,6.80
2018-01-20T22:55:37.888Z,6.80
2018-01-20T22:58:06.980Z,6.80
2018-01-20T23:00:35.255Z,6.80
2018-01-20T23:03:03.531Z,6.70
2018-01-20T23:05:31.810Z,6.70
2018-01-20T23:08:00.082Z,6.70
2018-01-20T23:10:29.079Z,6.70
2018-01-20T23:12:58.170Z,6.60
2018-01-20T23:15:27.269Z,6.60
2018-01-20T23:17:55.544Z,6.60
2018-01-20T23:20:24.535Z,6.60
2018-01-20T23:22:52.810Z,6.60
2018-01-20T23:25:21.818Z,6.60
2018-01-20T23:27:50.795Z,6.60
2018-01-20T23:30:20.608Z,6.50
2018-01-20T23:32:49.394Z,6.50
2018-01-20T23:35:18.387Z,6.50
2018-01-20T23:37:46.665Z,6.50
2018-01-20T23:40:14.941Z,6.50
2018-01-20T23:42:43.217Z,6.50
2018-01-20T23:45:11.497Z,6.50
2018-01-20T23:47:39.772Z,6.50
2018-01-20T23:50:08.044Z,6.50
2018-01-20T23:52:36.324Z,6.50
2018-01-20T23:55:05.104Z,6.40
2018-01-20T23:57:33.384Z,6.40
